Airport View

Enter AWOS ICAO identifier for current METAR.

ex. KFNL

KAID 262335Z AUTO 24003KT 10SM SCT019 01/M01 A2991 RMK AO2 T00101008

26 Jan 2020 23:31

Frequency: 128.55

Phone: 765-378-1510

Other Area AWOS: KMIE - KMQJ - KMZZ - KTYQ

TAF AMD KIND 262024Z 2620/2724 25012KT P6SM OVC012 FM262200 25008KT P6SM SCT012 FM270100 VRB04KT P6SM BKN023 FM271200 31005KT P6SM OVC008 FM271700 31006KT P6SM BKN011